createdAt,value
2022-12-08T00:02:54.855Z,80.64
2022-12-08T00:06:16.567Z,81.08
2022-12-08T00:09:37.924Z,80.81
2022-12-08T00:12:41.719Z,81.05
2022-12-08T00:15:44.499Z,80.99
2022-12-08T00:18:47.348Z,80.86
2022-12-08T00:21:50.516Z,80.79
2022-12-08T00:24:53.313Z,80.87
2022-12-08T00:27:56.113Z,80.90
2022-12-08T00:30:59.522Z,81.23
2022-12-08T00:34:02.290Z,81.09
2022-12-08T00:37:05.091Z,81.10
2022-12-08T00:40:08.635Z,80.97
2022-12-08T00:43:11.439Z,81.11
2022-12-08T00:46:14.244Z,80.93
2022-12-08T00:49:17.335Z,80.98
2022-12-08T00:52:20.352Z,80.96
2022-12-08T00:55:23.348Z,80.92
2022-12-08T00:58:26.099Z,81.06
2022-12-08T01:01:28.950Z,81.21
2022-12-08T01:04:31.908Z,81.19
2022-12-08T01:07:34.749Z,81.65
2022-12-08T01:10:39.670Z,81.41
2022-12-08T01:13:43.038Z,81.84
2022-12-08T01:16:45.941Z,82.11
2022-12-08T01:19:48.796Z,81.95
2022-12-08T01:22:51.555Z,81.94
2022-12-08T01:25:54.312Z,82.07
2022-12-08T01:28:57.099Z,82.22
2022-12-08T01:31:59.868Z,82.09
2022-12-08T01:35:02.631Z,81.45
2022-12-08T01:38:05.404Z,81.67
2022-12-08T01:41:08.148Z,81.68
2022-12-08T01:44:10.963Z,81.62
2022-12-08T01:47:13.669Z,81.63
2022-12-08T01:50:19.018Z,81.63
2022-12-08T01:53:26.539Z,81.93
2022-12-08T01:56:43.301Z,81.62
2022-12-08T01:59:51.743Z,81.57
2022-12-08T02:02:59.677Z,81.68
2022-12-08T02:06:03.785Z,81.57
2022-12-08T02:09:06.630Z,81.59
2022-12-08T02:12:10.356Z,81.63
2022-12-08T02:15:14.307Z,81.38
2022-12-08T02:18:32.405Z,81.90
2022-12-08T02:21:41.765Z,82.00
2022-12-08T02:25:00.309Z,82.16
2022-12-08T02:28:15.006Z,82.30
2022-12-08T02:31:24.071Z,82.14
2022-12-08T02:34:50.187Z,82.55
2022-12-08T02:38:14.976Z,82.51
2022-12-08T02:41:44.352Z,82.22
2022-12-08T02:45:00.228Z,82.01
2022-12-08T02:48:03.067Z,82.23
2022-12-08T02:51:06.448Z,82.45
2022-12-08T02:54:09.813Z,82.46
2022-12-08T02:57:42.434Z,82.16
2022-12-08T03:01:20.923Z,82.32
2022-12-08T03:04:29.855Z,82.34
2022-12-08T03:07:40.902Z,82.51
2022-12-08T03:10:52.493Z,82.38
2022-12-08T03:13:59.605Z,82.66
2022-12-08T03:17:04.043Z,83.07
2022-12-08T03:20:12.108Z,83.12
2022-12-08T03:23:17.565Z,83.05
2022-12-08T03:27:05.066Z,83.20
2022-12-08T03:30:08.691Z,83.03
2022-12-08T03:33:26.990Z,83.41
2022-12-08T03:36:29.736Z,83.35
2022-12-08T03:39:32.565Z,83.11
2022-12-08T03:42:35.775Z,83.18
2022-12-08T03:45:38.531Z,83.01
2022-12-08T03:48:41.513Z,82.94
2022-12-08T03:51:44.321Z,83.06
2022-12-08T03:54:47.252Z,82.89
2022-12-08T03:57:50.060Z,82.56
2022-12-08T04:00:52.795Z,82.82
2022-12-08T04:03:55.554Z,82.51
2022-12-08T04:06:58.365Z,82.57
2022-12-08T04:10:01.240Z,82.21
2022-12-08T04:13:04.380Z,82.39
2022-12-08T04:16:08.446Z,82.08
2022-12-08T04:19:11.264Z,82.17
2022-12-08T04:22:14.030Z,82.08
2022-12-08T04:25:16.976Z,82.64
2022-12-08T04:28:20.745Z,82.58
2022-12-08T04:31:23.540Z,82.74
2022-12-08T04:34:26.508Z,82.85
2022-12-08T04:37:29.479Z,82.81
2022-12-08T04:40:33.601Z,82.67
2022-12-08T04:43:37.088Z,82.56
2022-12-08T04:46:43.341Z,82.82
2022-12-08T04:49:46.652Z,82.47
2022-12-08T04:52:49.430Z,82.53
2022-12-08T04:55:52.574Z,82.81
2022-12-08T04:58:55.318Z,83.36
2022-12-08T05:01:58.105Z,83.63
2022-12-08T05:05:00.958Z,83.59
2022-12-08T05:08:04.370Z,83.60
2022-12-08T05:11:09.791Z,84.01
2022-12-08T05:14:15.473Z,84.17
2022-12-08T05:17:18.904Z,83.89
2022-12-08T05:20:22.088Z,83.79
2022-12-08T05:23:24.849Z,84.26
2022-12-08T05:26:27.644Z,84.10
2022-12-08T05:29:30.427Z,83.70
2022-12-08T05:32:33.181Z,83.61
2022-12-08T05:35:35.954Z,83.67
2022-12-08T05:38:39.695Z,83.88
2022-12-08T05:41:42.619Z,83.84
2022-12-08T05:44:45.377Z,84.29
2022-12-08T05:47:48.175Z,84.35
2022-12-08T05:50:51.982Z,84.47
2022-12-08T05:53:55.627Z,84.30
2022-12-08T05:56:58.441Z,84.21
2022-12-08T06:00:01.418Z,84.37
2022-12-08T06:03:04.474Z,84.30
2022-12-08T06:06:07.401Z,84.44
2022-12-08T06:09:10.490Z,84.28
2022-12-08T06:12:13.207Z,84.25
2022-12-08T06:15:15.969Z,84.25
2022-12-08T06:18:18.691Z,83.97
2022-12-08T06:21:21.513Z,83.29
2022-12-08T06:24:24.295Z,83.62
2022-12-08T06:27:27.070Z,83.91
2022-12-08T06:30:29.809Z,84.22
2022-12-08T06:33:32.563Z,84.10
2022-12-08T06:36:35.348Z,84.42
2022-12-08T06:39:38.126Z,84.49
2022-12-08T06:42:43.800Z,84.17
2022-12-08T06:45:46.616Z,84.06
2022-12-08T06:48:50.757Z,83.80
2022-12-08T06:51:53.777Z,83.98
2022-12-08T06:54:56.533Z,83.87
2022-12-08T06:57:59.523Z,83.92
2022-12-08T07:01:06.540Z,83.71
2022-12-08T07:04:09.749Z,83.76
2022-12-08T07:07:12.635Z,83.67
2022-12-08T07:10:15.389Z,83.68
2022-12-08T07:13:18.196Z,83.09
2022-12-08T07:16:21.288Z,83.23
2022-12-08T07:19:24.159Z,83.05
2022-12-08T07:22:26.965Z,82.59
2022-12-08T07:25:29.731Z,81.93
2022-12-08T07:28:34.207Z,81.80
2022-12-08T07:31:37.195Z,81.88
2022-12-08T07:34:39.919Z,81.97
2022-12-08T07:37:42.992Z,81.74
2022-12-08T07:40:45.746Z,81.43
2022-12-08T07:43:48.749Z,80.71
2022-12-08T07:46:51.528Z,80.53
2022-12-08T07:49:54.246Z,80.60
2022-12-08T07:52:57.033Z,80.92
2022-12-08T07:56:00.151Z,80.54
2022-12-08T07:59:04.257Z,79.78
2022-12-08T08:02:24.444Z,79.80
2022-12-08T08:05:28.680Z,79.29
2022-12-08T08:08:31.953Z,78.77
2022-12-08T08:11:34.786Z,78.88
2022-12-08T08:14:37.564Z,78.92
2022-12-08T08:17:40.560Z,78.80
2022-12-08T08:20:43.403Z,77.98
2022-12-08T08:23:46.182Z,77.62
2022-12-08T08:26:49.087Z,77.09
2022-12-08T08:29:51.885Z,76.98
2022-12-08T08:32:54.648Z,76.41
2022-12-08T08:35:57.708Z,75.90
2022-12-08T08:39:00.467Z,74.50
2022-12-08T08:42:03.764Z,74.00
2022-12-08T08:45:06.986Z,73.26
2022-12-08T08:48:09.760Z,72.80
2022-12-08T08:51:14.422Z,73.09
2022-12-08T08:54:17.135Z,72.30
2022-12-08T08:57:25.299Z,72.18
2022-12-08T09:00:28.772Z,72.96
2022-12-08T09:03:31.915Z,72.63
2022-12-08T09:06:34.719Z,71.56
2022-12-08T09:09:38.531Z,71.42
2022-12-08T09:12:41.335Z,72.27
2022-12-08T09:15:44.187Z,72.31
2022-12-08T09:18:48.399Z,72.60
2022-12-08T09:21:51.214Z,72.91
2022-12-08T09:24:54.033Z,73.04
2022-12-08T09:27:56.799Z,73.12
2022-12-08T09:31:00.299Z,73.36
2022-12-08T09:34:04.928Z,73.60
2022-12-08T09:37:07.809Z,73.98
2022-12-08T09:40:17.216Z,74.46
2022-12-08T09:43:45.257Z,74.76
2022-12-08T09:46:52.116Z,75.14
2022-12-08T09:50:01.239Z,75.45
2022-12-08T09:53:04.029Z,75.55
2022-12-08T09:56:17.205Z,76.02
2022-12-08T09:59:31.224Z,76.34
2022-12-08T10:02:34.397Z,76.67
2022-12-08T10:05:42.927Z,76.93
2022-12-08T10:08:56.006Z,77.15
2022-12-08T10:12:34.024Z,77.55
2022-12-08T10:15:42.177Z,77.69
2022-12-08T10:18:45.852Z,77.82
2022-12-08T10:21:49.318Z,78.03
2022-12-08T10:25:05.497Z,78.33
2022-12-08T10:28:09.584Z,78.28
2022-12-08T10:31:24.445Z,78.38
2022-12-08T10:34:27.290Z,78.40
2022-12-08T10:37:30.152Z,78.31
2022-12-08T10:40:40.692Z,78.34
2022-12-08T10:43:54.191Z,78.51
2022-12-08T10:46:57.132Z,78.60
2022-12-08T10:50:20.621Z,78.68
2022-12-08T10:53:26.134Z,78.84
2022-12-08T10:56:31.311Z,79.19
2022-12-08T10:59:34.228Z,79.39
2022-12-08T11:02:37.408Z,79.27
2022-12-08T11:05:42.103Z,79.12
2022-12-08T11:08:53.033Z,79.18
2022-12-08T11:12:13.718Z,79.18
2022-12-08T11:15:18.055Z,79.22
2022-12-08T11:18:29.823Z,79.08
2022-12-08T11:21:37.547Z,79.12
2022-12-08T11:24:40.289Z,79.00
2022-12-08T11:27:48.563Z,78.99
2022-12-08T11:31:00.731Z,79.06
2022-12-08T11:34:04.218Z,79.13
2022-12-08T11:37:12.928Z,79.05
2022-12-08T11:40:45.025Z,78.61
2022-12-08T11:44:06.410Z,78.45
2022-12-08T11:47:37.352Z,78.47
2022-12-08T11:51:06.383Z,78.94
2022-12-08T11:54:24.213Z,79.19
2022-12-08T11:57:28.673Z,79.46
2022-12-08T12:00:31.359Z,79.58
2022-12-08T12:03:38.228Z,79.80
2022-12-08T12:07:13.557Z,80.04
2022-12-08T12:10:37.141Z,80.25
2022-12-08T12:13:45.633Z,80.12
2022-12-08T12:16:57.937Z,80.19
2022-12-08T12:20:04.587Z,80.34
2022-12-08T12:23:23.139Z,80.53
2022-12-08T12:26:29.570Z,80.37
2022-12-08T12:29:37.438Z,80.17
2022-12-08T12:32:45.619Z,80.26
2022-12-08T12:35:48.804Z,80.36
2022-12-08T12:39:06.715Z,80.68
2022-12-08T12:42:41.610Z,80.83
2022-12-08T12:45:45.829Z,80.88
2022-12-08T12:48:49.560Z,80.85
2022-12-08T12:51:55.877Z,80.92
2022-12-08T12:54:58.659Z,80.99
2022-12-08T12:58:19.846Z,81.21
2022-12-08T13:01:22.633Z,81.27
2022-12-08T13:04:31.774Z,81.73
2022-12-08T13:07:43.794Z,82.11
2022-12-08T13:11:07.142Z,81.85
2022-12-08T13:14:28.038Z,81.37
2022-12-08T13:17:33.833Z,81.43
2022-12-08T13:20:48.268Z,81.44
2022-12-08T13:24:12.902Z,81.94
2022-12-08T13:27:32.112Z,82.17
2022-12-08T13:31:05.966Z,82.04
2022-12-08T13:34:42.461Z,81.20
2022-12-08T13:37:54.541Z,81.21
2022-12-08T13:41:03.167Z,80.98
2022-12-08T13:48:13.809Z,81.55
2022-12-08T13:58:28.475Z,81.87
2022-12-08T14:01:31.403Z,81.62
2022-12-08T14:04:54.383Z,81.41
2022-12-08T14:07:57.224Z,81.58
2022-12-08T14:11:03.361Z,81.17
2022-12-08T14:14:09.076Z,81.05
2022-12-08T14:17:15.540Z,81.19
2022-12-08T14:20:33.812Z,81.03
2022-12-08T14:23:45.262Z,80.84
2022-12-08T14:26:53.268Z,80.79
2022-12-08T14:29:58.591Z,80.88
2022-12-08T14:33:03.503Z,80.74
2022-12-08T14:36:06.705Z,80.51
2022-12-08T14:39:09.570Z,80.83
2022-12-08T14:42:22.779Z,80.84
2022-12-08T14:45:25.503Z,80.68
2022-12-08T14:48:28.218Z,80.48
2022-12-08T14:51:33.342Z,80.73
2022-12-08T14:54:36.500Z,80.43
2022-12-08T14:57:39.679Z,80.26
2022-12-08T15:00:48.025Z,80.33
2022-12-08T15:03:51.790Z,79.95
2022-12-08T15:07:28.981Z,79.55
2022-12-08T15:10:38.061Z,79.61
2022-12-08T15:13:49.807Z,79.55
2022-12-08T15:16:54.319Z,79.75
2022-12-08T15:19:58.905Z,79.67
2022-12-08T15:23:02.472Z,79.24
2022-12-08T15:26:05.971Z,79.05
2022-12-08T15:29:22.430Z,79.12
2022-12-08T15:32:25.243Z,78.44
2022-12-08T15:35:28.523Z,78.48
2022-12-08T15:38:31.485Z,77.87
2022-12-08T15:41:34.267Z,77.71
2022-12-08T15:44:37.299Z,77.82
2022-12-08T15:47:40.652Z,78.24
2022-12-08T15:50:43.685Z,78.01
2022-12-08T15:53:46.426Z,77.88
2022-12-08T15:57:18.409Z,77.65
2022-12-08T16:07:28.440Z,76.11
2022-12-08T16:10:52.524Z,76.40
2022-12-08T16:14:03.140Z,75.21
2022-12-08T16:17:18.154Z,75.62
2022-12-08T16:20:28.177Z,75.69
2022-12-08T16:23:43.657Z,76.41
2022-12-08T16:30:15.931Z,76.11
2022-12-08T16:33:19.426Z,75.47
2022-12-08T16:36:22.201Z,75.50
2022-12-08T16:39:25.033Z,75.23
2022-12-08T16:42:50.304Z,75.54
2022-12-08T16:45:53.314Z,75.53
2022-12-08T16:48:59.193Z,74.92
2022-12-08T16:52:02.040Z,74.90
2022-12-08T16:55:13.533Z,74.99
2022-12-08T16:58:18.450Z,74.27
2022-12-08T17:01:21.307Z,74.07
2022-12-08T17:04:31.451Z,74.37
2022-12-08T17:07:36.036Z,75.11
2022-12-08T17:10:39.516Z,74.27
2022-12-08T17:13:42.500Z,73.60
2022-12-08T17:16:45.894Z,73.64
2022-12-08T17:19:48.741Z,73.28
2022-12-08T17:22:55.494Z,72.87
2022-12-08T17:26:00.332Z,73.10
2022-12-08T17:29:04.466Z,73.10
2022-12-08T17:32:07.384Z,73.26
2022-12-08T17:35:10.826Z,72.89
2022-12-08T17:38:13.564Z,72.91
2022-12-08T17:41:16.337Z,73.42
2022-12-08T17:44:19.867Z,73.42
2022-12-08T17:47:23.116Z,72.92
2022-12-08T17:50:25.919Z,73.83
2022-12-08T17:53:30.656Z,73.87
2022-12-08T17:56:37.016Z,73.21
2022-12-08T17:59:39.966Z,73.96
2022-12-08T18:02:42.833Z,74.22
2022-12-08T18:05:46.091Z,73.23
2022-12-08T18:08:48.882Z,73.51
2022-12-08T18:11:51.764Z,72.88
2022-12-08T18:14:54.719Z,73.54
2022-12-08T18:17:57.566Z,73.99
2022-12-08T18:21:00.435Z,74.25
2022-12-08T18:24:04.380Z,73.92
2022-12-08T18:27:07.127Z,74.03
2022-12-08T18:30:14.473Z,73.96
2022-12-08T18:33:17.255Z,73.73
2022-12-08T18:36:26.310Z,74.05
2022-12-08T18:39:31.644Z,73.58
2022-12-08T18:42:34.497Z,73.82
2022-12-08T18:45:38.996Z,74.03
2022-12-08T18:48:50.351Z,73.60
2022-12-08T18:51:53.272Z,73.71
2022-12-08T18:55:06.203Z,73.58
2022-12-08T18:58:11.021Z,73.41
2022-12-08T19:01:14.902Z,73.51
2022-12-08T19:04:28.425Z,73.28
2022-12-08T19:07:31.979Z,73.70
2022-12-08T19:10:38.127Z,73.59
2022-12-08T19:13:40.893Z,74.39
2022-12-08T19:16:43.678Z,74.51
2022-12-08T19:19:46.587Z,74.40
2022-12-08T19:22:49.456Z,74.54
2022-12-08T19:25:52.226Z,74.70
2022-12-08T19:28:55.699Z,74.55
2022-12-08T19:31:58.986Z,74.28
2022-12-08T19:35:07.229Z,74.54
2022-12-08T19:38:10.045Z,74.59
2022-12-08T19:41:31.682Z,74.35
2022-12-08T19:44:34.431Z,73.97
2022-12-08T19:47:38.206Z,74.10
2022-12-08T19:50:41.509Z,74.71
2022-12-08T19:53:47.566Z,74.65
2022-12-08T19:56:50.865Z,74.84
2022-12-08T19:59:56.435Z,74.78
2022-12-08T20:03:02.156Z,74.97
2022-12-08T20:06:05.073Z,75.06
2022-12-08T20:09:08.285Z,75.21
2022-12-08T20:12:11.121Z,75.31
2022-12-08T20:15:14.945Z,75.55
2022-12-08T20:18:18.110Z,75.56
2022-12-08T20:21:22.205Z,75.84
2022-12-08T20:24:25.098Z,76.03
2022-12-08T20:27:29.173Z,76.06
2022-12-08T20:30:32.157Z,76.09
2022-12-08T20:33:34.940Z,76.17
2022-12-08T20:36:37.745Z,76.19
2022-12-08T20:39:40.518Z,75.89
2022-12-08T20:42:43.363Z,76.19
2022-12-08T20:45:46.242Z,76.19
2022-12-08T20:48:49.170Z,76.13
2022-12-08T20:51:52.094Z,76.04
2022-12-08T20:54:56.020Z,76.29
2022-12-08T20:57:59.119Z,76.29
2022-12-08T21:01:08.923Z,76.48
2022-12-08T21:04:12.916Z,76.86
2022-12-08T21:07:16.061Z,76.91
2022-12-08T21:10:18.876Z,76.75
2022-12-08T21:13:22.153Z,76.51
2022-12-08T21:16:25.182Z,76.62
2022-12-08T21:19:28.313Z,76.68
2022-12-08T21:22:31.240Z,76.69
2022-12-08T21:25:41.091Z,77.08
2022-12-08T21:28:44.429Z,77.07
2022-12-08T21:31:47.446Z,77.42
2022-12-08T21:34:50.381Z,77.34
2022-12-08T21:37:53.265Z,77.18
2022-12-08T21:41:01.330Z,76.86
2022-12-08T21:44:05.481Z,77.03
2022-12-08T21:47:08.529Z,77.05
2022-12-08T21:50:12.756Z,77.08
2022-12-08T21:53:15.957Z,77.35
2022-12-08T21:56:18.719Z,77.40
2022-12-08T21:59:21.605Z,77.52
2022-12-08T22:02:24.639Z,77.73
2022-12-08T22:05:27.711Z,77.79
2022-12-08T22:08:30.844Z,77.71
2022-12-08T22:11:33.728Z,77.76
2022-12-08T22:14:36.575Z,77.71
2022-12-08T22:17:41.728Z,77.55
2022-12-08T22:20:44.876Z,77.45
2022-12-08T22:23:47.870Z,77.63
2022-12-08T22:26:50.640Z,77.46
2022-12-08T22:29:55.236Z,77.86
2022-12-08T22:32:58.219Z,78.19
2022-12-08T22:36:09.836Z,78.15
2022-12-08T22:39:13.685Z,78.11
2022-12-08T22:42:16.646Z,78.20
2022-12-08T22:45:19.516Z,78.19
2022-12-08T22:48:22.506Z,78.55
2022-12-08T22:51:25.327Z,78.43
2022-12-08T22:54:28.130Z,78.46
2022-12-08T22:57:31.018Z,78.91
2022-12-08T23:00:33.937Z,78.93
2022-12-08T23:03:36.781Z,79.15
2022-12-08T23:06:39.563Z,79.08
2022-12-08T23:09:42.406Z,79.28
2022-12-08T23:12:45.452Z,79.28
2022-12-08T23:15:48.327Z,79.55
2022-12-08T23:18:51.463Z,79.60
2022-12-08T23:21:54.261Z,79.30
2022-12-08T23:24:57.452Z,79.74
2022-12-08T23:28:00.356Z,79.78
2022-12-08T23:31:08.390Z,79.34
2022-12-08T23:34:11.628Z,79.46
2022-12-08T23:37:14.397Z,79.69
2022-12-08T23:40:17.159Z,79.62
2022-12-08T23:43:20.144Z,79.69
2022-12-08T23:46:23.614Z,79.56
2022-12-08T23:49:26.605Z,79.53
2022-12-08T23:52:29.540Z,79.71
2022-12-08T23:55:32.549Z,79.66
2022-12-08T23:58:36.166Z,79.80
